Time;durP1;ratioP1;P1;durP2;ratioP2;P2;SDS_P1;SDS_P2;PMS_P1;PMS_P2;Temp;Humidity;BMP_temperature;BMP_pressure;BME280_temperature;BME280_humidity;BME280_pressure;Samples;Min_cycle;Max_cycle;Signal;HPM_P1;HPM_P2
2021/01/05 00:00:57;;;;;;;28.73;14.68;;;1.60;99.90;;;;;;5073800;28;20080;-65
2021/01/05 00:03:23;;;;;;;27.13;14.77;;;1.60;99.90;;;;;;5073723;28;20040;-66
2021/01/05 00:05:50;;;;;;;26.65;13.88;;;1.60;99.90;;;;;;5073666;28;20051;-67
2021/01/05 00:08:16;;;;;;;28.45;13.77;;;1.60;99.90;;;;;;5054944;28;20048;-68
2021/01/05 00:10:42;;;;;;;27.50;15.15;;;1.60;99.90;;;;;;5073211;28;20051;-67
2021/01/05 00:13:09;;;;;;;25.02;14.45;;;1.70;99.90;;;;;;5073998;28;20135;-67
2021/01/05 00:15:35;;;;;;;31.02;15.20;;;1.60;99.90;;;;;;5084400;28;20135;-67
2021/01/05 00:18:02;;;;;;;28.75;14.45;;;1.70;99.90;;;;;;5073058;28;20075;-67
2021/01/05 00:20:31;;;;;;;26.27;14.43;;;1.70;99.90;;;;;;5064878;28;20052;-67
2021/01/05 00:23:11;;;;;;;;;;;1.70;99.90;;;;;;5064481;28;20135;-65
2021/01/05 00:25:37;;;;;;;27.95;14.48;;;1.70;99.90;;;;;;5076015;28;20305;-65
2021/01/05 00:28:04;;;;;;;25.20;13.80;;;1.70;99.90;;;;;;5067058;28;20140;-65
2021/01/05 00:30:31;;;;;;;25.35;14.10;;;1.60;99.90;;;;;;5070345;28;20045;-65
2021/01/05 00:32:57;;;;;;;24.88;13.88;;;1.70;99.90;;;;;;5076698;28;20143;-67
2021/01/05 00:35:30;;;;;;;27.52;14.85;;;1.70;99.90;;;;;;5070509;28;20049;-65
2021/01/05 00:37:57;;;;;;;29.05;14.50;;;1.70;99.90;;;;;;5082544;28;20051;-65
2021/01/05 00:40:25;;;;;;;24.35;14.38;;;1.70;99.90;;;;;;5062815;28;20083;-65
2021/01/05 00:42:52;;;;;;;27.83;14.80;;;1.70;99.90;;;;;;5072859;28;20044;-65
2021/01/05 00:45:29;;;;;;;28.23;15.57;;;1.70;99.90;;;;;;5073423;28;20072;-66
2021/01/05 00:47:56;;;;;;;25.45;14.25;;;1.70;99.90;;;;;;5072572;28;20037;-66
2021/01/05 00:50:23;;;;;;;26.60;14.20;;;1.70;99.90;;;;;;5072715;28;20060;-66
2021/01/05 00:52:50;;;;;;;24.60;13.38;;;1.60;99.90;;;;;;5072576;28;20054;-65
2021/01/05 00:55:17;;;;;;;23.08;12.18;;;1.60;99.90;;;;;;5073178;28;20056;-65
2021/01/05 00:57:44;;;;;;;24.85;13.57;;;1.60;99.90;;;;;;5072425;28;20052;-65
2021/01/05 01:00:19;;;;;;;22.85;12.98;;;1.60;99.90;;;;;;5072988;28;20057;-65
2021/01/05 01:02:50;;;;;;;23.13;13.13;;;1.60;99.90;;;;;;5067346;28;20037;-65
2021/01/05 01:05:18;;;;;;;24.35;13.85;;;1.60;99.90;;;;;;5070143;28;20075;-65
2021/01/05 01:07:44;;;;;;;24.63;13.40;;;1.70;99.90;;;;;;5072838;28;20051;-65
2021/01/05 01:10:12;;;;;;;22.83;13.27;;;1.70;99.90;;;;;;5071330;28;20074;-66
2021/01/05 01:12:38;;;;;;;23.38;12.85;;;1.70;99.90;;;;;;5072398;28;20059;-65
2021/01/05 01:15:07;;;;;;;22.98;13.05;;;1.70;99.90;;;;;;5079577;28;20131;-66
2021/01/05 01:17:38;;;;;;;24.15;13.07;;;1.60;99.90;;;;;;5083302;28;20075;-67
2021/01/05 01:20:09;;;;;;;23.17;12.68;;;1.70;99.90;;;;;;5055850;28;20415;-67
2021/01/05 01:22:39;;;;;;;23.08;13.25;;;1.60;99.90;;;;;;5073344;28;20557;-67
2021/01/05 01:25:11;;;;;;;24.73;12.77;;;1.60;99.90;;;;;;5059821;28;20053;-67
2021/01/05 01:27:38;;;;;;;23.50;13.20;;;1.60;99.90;;;;;;5066490;28;20044;-67
2021/01/05 01:30:06;;;;;;;23.40;13.27;;;1.60;99.90;;;;;;5066070;28;20044;-67
2021/01/05 01:32:33;;;;;;;22.50;11.88;;;1.60;99.90;;;;;;5057203;28;20044;-67
2021/01/05 01:35:00;;;;;;;25.13;13.73;;;1.60;99.90;;;;;;5067584;28;20052;-67
2021/01/05 01:37:26;;;;;;;22.80;12.82;;;1.60;99.90;;;;;;5061876;28;20498;-67
2021/01/05 01:39:53;;;;;;;24.58;13.98;;;1.60;99.90;;;;;;5068373;28;20411;-68
2021/01/05 01:42:20;;;;;;;23.48;12.63;;;1.70;99.90;;;;;;5069835;28;20106;-67
2021/01/05 01:44:48;;;;;;;21.95;13.20;;;1.60;99.90;;;;;;5072271;28;20048;-67
2021/01/05 01:47:34;;;;;;;21.05;12.02;;;1.60;99.90;;;;;;5066529;28;20047;-67
2021/01/05 01:50:05;;;;;;;22.25;12.23;;;1.60;99.90;;;;;;5076973;28;20055;-67
2021/01/05 01:53:02;;;;;;;24.13;13.30;;;1.70;99.90;;;;;;5069032;28;20529;-67
2021/01/05 01:55:54;;;;;;;21.77;11.80;;;1.70;99.90;;;;;;5053905;28;20051;-67
2021/01/05 01:58:44;;;;;;;20.77;11.65;;;1.70;99.90;;;;;;5059925;28;20106;-67
2021/01/05 02:01:22;;;;;;;20.02;11.80;;;1.70;99.90;;;;;;5057896;28;20060;-69
2021/01/05 02:04:01;;;;;;;23.45;12.75;;;1.70;99.90;;;;;;5071187;28;20500;-67
2021/01/05 02:06:34;;;;;;;21.30;11.90;;;1.70;99.90;;;;;;5059601;28;20040;-69
2021/01/05 02:09:06;;;;;;;21.83;12.45;;;1.70;99.90;;;;;;5069919;28;20059;-66
2021/01/05 02:12:12;;;;;;;22.70;13.45;;;1.80;99.90;;;;;;5069672;28;20546;-67
2021/01/05 02:14:45;;;;;;;22.00;11.82;;;1.80;99.90;;;;;;5070490;28;20379;-69
2021/01/05 02:17:42;;;;;;;21.42;11.05;;;1.80;99.90;;;;;;5070488;28;20075;-69
2021/01/05 02:20:44;;;;;;;22.88;12.80;;;1.80;99.90;;;;;;5058330;28;20067;-67
2021/01/05 02:23:23;;;;;;;21.15;12.18;;;1.80;99.90;;;;;;5070078;28;20394;-67
2021/01/05 02:26:07;;;;;;;22.67;12.52;;;1.80;99.90;;;;;;5071772;28;20406;-67
2021/01/05 02:28:43;;;;;;;22.25;11.52;;;1.70;99.90;;;;;;5062507;28;20049;-67
2021/01/05 02:31:27;;;;;;;22.85;13.13;;;1.70;99.90;;;;;;5065211;28;20054;-67
2021/01/05 02:34:04;;;;;;;22.05;12.18;;;1.80;99.90;;;;;;5070997;28;20505;-67
2021/01/05 02:36:59;;;;;;;21.70;11.88;;;1.80;99.90;;;;;;5069081;28;20099;-67
2021/01/05 02:39:51;;;;;;;22.63;12.32;;;1.70;99.90;;;;;;5061962;28;20052;-67
2021/01/05 02:42:55;;;;;;;21.58;11.98;;;1.70;99.90;;;;;;5064022;28;20056;-68
2021/01/05 02:45:31;;;;;;;21.42;12.20;;;1.80;99.90;;;;;;5071269;28;20052;-68
2021/01/05 02:48:28;;;;;;;21.08;11.63;;;1.80;99.90;;;;;;5069818;28;20056;-68
2021/01/05 02:51:19;;;;;;;21.73;11.98;;;1.80;99.90;;;;;;5070418;28;20049;-68
2021/01/05 02:54:04;;;;;;;22.20;11.40;;;1.80;99.90;;;;;;5064165;28;20048;-67
2021/01/05 02:57:16;;;;;;;25.13;12.77;;;1.80;99.90;;;;;;5070291;28;20060;-68
2021/01/05 02:59:57;;;;;;;24.80;12.70;;;1.80;99.90;;;;;;5061772;28;20052;-68
2021/01/05 03:02:55;;;;;;;24.43;13.93;;;1.80;99.90;;;;;;5062064;28;20415;-68
2021/01/05 03:05:23;;;;;;;22.67;12.95;;;1.70;99.90;;;;;;5061506;28;20118;-67
2021/01/05 03:07:50;;;;;;;22.13;11.65;;;1.70;99.90;;;;;;5068527;28;20048;-68
2021/01/05 03:10:37;;;;;;;24.17;11.85;;;1.70;99.90;;;;;;5059200;28;20041;-68
2021/01/05 03:13:33;;;;;;;22.17;11.60;;;1.70;99.90;;;;;;5056121;28;20052;-68
2021/01/05 03:16:27;;;;;;;23.23;12.80;;;1.70;99.90;;;;;;5005788;28;20058;-68
2021/01/05 03:19:08;;;;;;;24.35;13.05;;;1.70;99.90;;;;;;5003864;28;20057;-67
2021/01/05 03:21:46;;;;;;;23.35;12.70;;;1.70;99.90;;;;;;4992266;28;20081;-68
2021/01/05 03:24:14;;;;;;;22.58;12.60;;;1.70;99.90;;;;;;5001341;28;20050;-67
2021/01/05 03:26:43;;;;;;;25.38;13.07;;;1.70;99.90;;;;;;4994233;28;20042;-67
2021/01/05 03:29:14;;;;;;;26.70;14.27;;;1.70;99.90;;;;;;5008550;28;20415;-66
2021/01/05 03:31:50;;;;;;;21.27;12.15;;;1.70;99.90;;;;;;5010803;28;20520;-67
2021/01/05 03:34:18;;;;;;;24.67;13.27;;;1.70;99.90;;;;;;5002103;28;20057;-67
2021/01/05 03:36:45;;;;;;;22.60;12.95;;;1.80;99.90;;;;;;5006963;28;20046;-67
2021/01/05 03:39:13;;;;;;;24.83;12.93;;;1.80;99.90;;;;;;5003289;28;20377;-68
2021/01/05 03:41:41;;;;;;;23.92;12.00;;;1.70;99.90;;;;;;4992655;28;20535;-67
2021/01/05 03:44:08;;;;;;;22.63;12.98;;;1.80;99.90;;;;;;4976243;28;20473;-68
2021/01/05 03:46:35;;;;;;;24.52;12.48;;;1.70;99.90;;;;;;4990640;28;20436;-67
2021/01/05 03:49:02;;;;;;;23.48;12.65;;;1.80;99.90;;;;;;4998225;28;20045;-68
2021/01/05 03:51:29;;;;;;;21.65;11.45;;;1.80;99.90;;;;;;4982897;28;20058;-67
2021/01/05 03:53:55;;;;;;;21.13;12.60;;;1.80;99.90;;;;;;5059069;28;20059;-68
2021/01/05 03:56:22;;;;;;;23.70;13.07;;;1.80;99.90;;;;;;5070450;28;20478;-68
2021/01/05 03:58:49;;;;;;;26.00;13.02;;;1.70;99.90;;;;;;5070398;28;20064;-68
2021/01/05 04:01:15;;;;;;;23.02;12.75;;;1.70;99.90;;;;;;5069932;28;20047;-68
2021/01/05 04:03:42;;;;;;;26.15;13.82;;;1.70;99.90;;;;;;5070219;28;20051;-68
2021/01/05 04:06:09;;;;;;;20.90;12.10;;;1.70;99.90;;;;;;5069439;28;20356;-68
2021/01/05 04:08:36;;;;;;;24.98;12.30;;;1.70;99.90;;;;;;5070213;28;20048;-68
2021/01/05 04:11:04;;;;;;;25.00;13.73;;;1.80;99.90;;;;;;5067499;28;20052;-68
2021/01/05 04:13:31;;;;;;;30.05;13.95;;;1.80;99.90;;;;;;5070235;28;20056;-66
2021/01/05 04:15:58;;;;;;;25.38;14.02;;;1.80;99.90;;;;;;5068541;28;20052;-66
2021/01/05 04:18:25;;;;;;;26.13;14.05;;;1.80;99.90;;;;;;5057346;28;20052;-67
2021/01/05 04:20:52;;;;;;;23.83;12.50;;;1.80;99.90;;;;;;5070001;28;20057;-66
2021/01/05 04:23:18;;;;;;;23.17;12.73;;;1.80;99.90;;;;;;5059066;28;20402;-67
2021/01/05 04:25:44;;;;;;;29.40;12.73;;;1.80;99.90;;;;;;5070047;28;20308;-66
2021/01/05 04:28:11;;;;;;;25.05;13.32;;;1.80;99.90;;;;;;5069559;28;20384;-66
2021/01/05 04:30:38;;;;;;;25.17;13.75;;;1.80;99.90;;;;;;5070237;28;20044;-66
2021/01/05 04:33:08;;;;;;;26.85;14.55;;;1.80;99.90;;;;;;5062495;28;20063;-66
2021/01/05 04:35:35;;;;;;;27.63;14.25;;;1.80;99.90;;;;;;5070051;28;20048;-66
2021/01/05 04:38:03;;;;;;;25.17;12.88;;;1.80;99.90;;;;;;5072368;28;20053;-67
2021/01/05 04:40:45;;;;;;;26.88;14.02;;;1.80;99.90;;;;;;5069907;28;20041;-67
2021/01/05 04:43:22;;;;;;;19.83;12.70;;;1.80;99.90;;;;;;5064916;28;20048;-66
2021/01/05 04:46:17;;;;;;;27.27;14.63;;;1.80;99.90;;;;;;5072825;28;20558;-67
2021/01/05 04:48:50;;;;;;;25.42;13.93;;;1.80;99.90;;;;;;5079078;28;20047;-66
2021/01/05 04:51:49;;;;;;;24.38;13.43;;;1.80;99.90;;;;;;5073387;28;20052;-67
2021/01/05 04:55:00;;;;;;;23.42;13.20;;;1.90;99.90;;;;;;5067023;28;20044;-66
2021/01/05 04:57:29;;;;;;;23.13;13.37;;;1.80;99.90;;;;;;5007402;28;20046;-66
2021/01/05 05:00:07;;;;;;;24.00;13.75;;;1.80;99.90;;;;;;5008515;28;20077;-67
2021/01/05 05:02:48;;;;;;;26.13;13.32;;;1.80;99.90;;;;;;5010448;28;20046;-65
2021/01/05 05:05:23;;;;;;;25.65;13.35;;;1.90;99.90;;;;;;5008315;28;20547;-65
2021/01/05 05:08:10;;;;;;;23.40;12.23;;;1.90;99.90;;;;;;5010408;28;20064;-64
2021/01/05 05:10:53;;;;;;;24.33;12.40;;;1.90;99.90;;;;;;5009628;28;20050;-66
2021/01/05 05:13:34;;;;;;;25.02;13.38;;;1.90;99.90;;;;;;5009114;28;20323;-65
2021/01/05 05:16:00;;;;;;;23.90;13.03;;;1.90;99.90;;;;;;5008866;28;20062;-66
2021/01/05 05:19:04;;;;;;;23.55;12.57;;;1.90;99.90;;;;;;5009001;28;20741;-65
2021/01/05 05:21:47;;;;;;;23.33;12.38;;;1.90;99.90;;;;;;5009623;28;20046;-65
2021/01/05 05:24:20;;;;;;;23.70;12.93;;;1.90;99.90;;;;;;4994923;28;20489;-65
2021/01/05 05:26:57;;;;;;;23.52;12.85;;;1.90;99.90;;;;;;5010159;28;20057;-65
2021/01/05 05:29:37;;;;;;;22.88;13.05;;;2.00;99.90;;;;;;4996704;28;20054;-65
2021/01/05 05:32:19;;;;;;;21.52;12.18;;;2.00;99.90;;;;;;5040669;28;20414;-66
2021/01/05 05:35:04;;;;;;;21.92;12.30;;;2.00;99.90;;;;;;5050781;28;20051;-65
2021/01/05 05:37:48;;;;;;;20.90;11.32;;;2.00;99.90;;;;;;5051794;28;20392;-65
2021/01/05 05:40:28;;;;;;;23.02;11.45;;;2.00;99.90;;;;;;5050848;28;20489;-65
2021/01/05 05:43:06;;;;;;;18.45;11.07;;;2.00;99.90;;;;;;5040629;28;20048;-65
2021/01/05 05:46:24;;;;;;;21.17;11.98;;;2.00;99.90;;;;;;5048478;28;20045;-65
2021/01/05 05:48:51;;;;;;;46.85;13.02;;;2.00;99.90;;;;;;5008992;28;20042;-65
2021/01/05 05:51:27;;;;;;;21.42;11.05;;;2.00;99.90;;;;;;4992484;28;20052;-65
2021/01/05 05:53:59;;;;;;;19.13;11.07;;;2.00;99.90;;;;;;5009686;28;20115;-65
2021/01/05 05:56:51;;;;;;;23.63;11.65;;;2.00;99.90;;;;;;5008250;28;20432;-64
2021/01/05 05:59:33;;;;;;;18.77;10.38;;;2.00;99.90;;;;;;5010325;28;20049;-67
2021/01/05 06:02:00;;;;;;;20.25;10.95;;;2.00;99.90;;;;;;5015039;28;20057;-67
2021/01/05 06:04:27;;;;;;;21.40;10.50;;;2.00;99.90;;;;;;5009022;28;20475;-65
2021/01/05 06:06:53;;;;;;;20.20;11.00;;;2.00;99.90;;;;;;5007568;28;20060;-64
2021/01/05 06:09:19;;;;;;;22.00;11.02;;;2.00;99.90;;;;;;5009749;28;20104;-65
2021/01/05 06:11:55;;;;;;;20.15;11.25;;;2.00;99.90;;;;;;5008905;28;20041;-65
2021/01/05 06:14:22;;;;;;;17.55;10.40;;;2.00;99.90;;;;;;5010599;28;20109;-65
2021/01/05 06:16:48;;;;;;;17.77;9.90;;;2.00;99.90;;;;;;5010973;28;20412;-66
2021/01/05 06:19:15;;;;;;;19.55;11.15;;;2.00;99.90;;;;;;5009146;28;20520;-64
2021/01/05 06:21:41;;;;;;;19.08;11.00;;;2.00;99.90;;;;;;5014492;28;20405;-65
2021/01/05 06:24:08;;;;;;;19.48;10.20;;;1.90;99.90;;;;;;5051570;28;20053;-65
2021/01/05 06:26:34;;;;;;;19.27;10.75;;;2.00;99.90;;;;;;5050900;28;20049;-65
2021/01/05 06:29:01;;;;;;;17.30;10.07;;;2.00;99.90;;;;;;5039465;28;20056;-66
2021/01/05 06:31:28;;;;;;;21.83;11.52;;;2.00;99.90;;;;;;5054004;28;20041;-66
2021/01/05 06:33:54;;;;;;;21.95;11.18;;;2.00;99.90;;;;;;5055593;28;20051;-65
2021/01/05 06:36:22;;;;;;;20.02;10.85;;;2.00;99.90;;;;;;5055407;28;20477;-65
2021/01/05 06:38:48;;;;;;;21.60;11.18;;;2.00;99.90;;;;;;5058564;28;20048;-65
2021/01/05 06:41:15;;;;;;;18.65;11.05;;;2.00;99.90;;;;;;5061016;28;20044;-65
2021/01/05 06:43:41;;;;;;;19.25;10.15;;;2.00;99.90;;;;;;5068561;28;20051;-65
2021/01/05 06:46:11;;;;;;;21.50;11.43;;;2.00;99.90;;;;;;5069710;28;20491;-65
2021/01/05 06:48:37;;;;;;;22.05;12.45;;;2.00;99.90;;;;;;5070641;28;20044;-65
2021/01/05 06:51:05;;;;;;;19.67;11.48;;;2.00;99.90;;;;;;5070934;28;20489;-69
2021/01/05 06:53:32;;;;;;;19.17;10.50;;;2.00;99.90;;;;;;5068324;28;20056;-68
2021/01/05 06:55:58;;;;;;;19.55;10.68;;;2.00;99.90;;;;;;5073449;28;20044;-68
2021/01/05 06:58:31;;;;;;;17.58;10.15;;;2.10;99.90;;;;;;5073636;28;20048;-69
2021/01/05 07:00:57;;;;;;;20.30;10.40;;;2.10;99.90;;;;;;5079522;28;20055;-68
2021/01/05 07:03:24;;;;;;;20.35;10.52;;;2.10;99.90;;;;;;5071570;28;20045;-69
2021/01/05 07:05:50;;;;;;;21.05;11.23;;;2.10;99.90;;;;;;5070959;28;20041;-69
2021/01/05 07:08:16;;;;;;;21.00;11.88;;;2.10;99.90;;;;;;5070643;28;20052;-69
2021/01/05 07:10:43;;;;;;;17.27;9.65;;;2.10;99.90;;;;;;5061153;28;20084;-68
2021/01/05 07:13:09;;;;;;;18.80;10.70;;;2.10;99.90;;;;;;5070419;28;20095;-69
2021/01/05 07:15:36;;;;;;;18.40;10.35;;;2.10;99.90;;;;;;5070937;28;20049;-68
2021/01/05 07:18:02;;;;;;;24.42;11.90;;;2.10;99.90;;;;;;5068474;28;20071;-68
2021/01/05 07:20:48;;;;;;;19.50;10.80;;;2.10;99.90;;;;;;5064456;28;20060;-68
2021/01/05 07:23:14;;;;;;;19.52;10.77;;;2.10;99.90;;;;;;5058089;28;20056;-68
2021/01/05 07:25:41;;;;;;;20.88;11.07;;;2.20;99.90;;;;;;5062549;28;20123;-69
2021/01/05 07:28:07;;;;;;;21.10;10.82;;;2.10;99.90;;;;;;5056686;28;20041;-68
2021/01/05 07:30:34;;;;;;;17.80;10.30;;;2.10;99.90;;;;;;5045794;28;20067;-68
2021/01/05 07:33:00;;;;;;;24.10;11.95;;;2.20;99.90;;;;;;5053958;28;20060;-68
2021/01/05 07:35:27;;;;;;;19.58;10.98;;;2.10;99.90;;;;;;5050235;28;20056;-68
2021/01/05 07:37:53;;;;;;;18.85;10.70;;;2.20;99.90;;;;;;5050053;28;20511;-68
2021/01/05 07:40:20;;;;;;;18.05;10.60;;;2.10;99.90;;;;;;5053002;28;20057;-68
2021/01/05 07:42:47;;;;;;;18.98;11.38;;;2.10;99.90;;;;;;5053951;28;20053;-69
2021/01/05 07:45:20;;;;;;;19.80;11.38;;;2.20;99.90;;;;;;5050072;28;20057;-68
2021/01/05 07:47:49;;;;;;;21.05;11.30;;;2.20;99.90;;;;;;5050083;28;20049;-68
2021/01/05 07:50:21;;;;;;;21.05;11.05;;;2.20;99.90;;;;;;5055532;28;20052;-68
2021/01/05 07:52:48;;;;;;;18.35;10.77;;;2.20;99.90;;;;;;5049686;28;20059;-68
2021/01/05 07:55:16;;;;;;;17.98;10.60;;;2.20;99.90;;;;;;5032532;28;20817;-69
2021/01/05 07:57:43;;;;;;;17.65;10.38;;;2.20;99.90;;;;;;5050070;28;20475;-67
2021/01/05 08:00:14;;;;;;;16.25;9.45;;;2.30;99.90;;;;;;5049643;28;20546;-68
2021/01/05 08:02:40;;;;;;;17.45;10.07;;;2.30;99.90;;;;;;5050473;28;20052;-68
2021/01/05 08:05:10;;;;;;;17.13;9.70;;;2.30;99.90;;;;;;5052215;28;20102;-68
2021/01/05 08:07:37;;;;;;;16.98;10.40;;;2.30;99.90;;;;;;5049880;28;20080;-69
2021/01/05 08:10:05;;;;;;;16.38;9.90;;;2.30;99.90;;;;;;5047320;28;20053;-68
2021/01/05 08:12:31;;;;;;;17.13;9.60;;;2.30;99.90;;;;;;5052673;28;20603;-68
2021/01/05 08:14:58;;;;;;;18.88;9.88;;;2.40;99.90;;;;;;5058471;28;20052;-68
2021/01/05 08:17:24;;;;;;;17.55;10.18;;;2.30;99.90;;;;;;5051740;28;20045;-68
2021/01/05 08:19:51;;;;;;;18.55;10.05;;;2.30;99.90;;;;;;5053703;28;20129;-68
2021/01/05 08:22:17;;;;;;;20.33;10.60;;;2.30;99.90;;;;;;5052393;28;20075;-68
2021/01/05 08:24:44;;;;;;;19.88;11.70;;;2.40;99.90;;;;;;5051133;28;20059;-68
2021/01/05 08:27:12;;;;;;;19.70;10.98;;;2.40;99.90;;;;;;5053467;28;20474;-69
2021/01/05 08:29:41;;;;;;;17.73;10.65;;;2.40;99.90;;;;;;5066781;28;20044;-68
2021/01/05 08:32:08;;;;;;;17.33;10.23;;;2.40;99.90;;;;;;5078156;28;20483;-69
2021/01/05 08:34:34;;;;;;;22.17;10.70;;;2.40;99.90;;;;;;5072805;28;20507;-68
2021/01/05 08:37:01;;;;;;;18.90;10.50;;;2.40;99.90;;;;;;5072736;28;20049;-68
2021/01/05 08:39:27;;;;;;;19.30;10.55;;;2.40;99.90;;;;;;5065971;28;20063;-68
2021/01/05 08:41:56;;;;;;;16.48;9.90;;;2.40;99.90;;;;;;5072043;28;20056;-68
2021/01/05 08:44:24;;;;;;;19.90;10.27;;;2.40;99.90;;;;;;5062588;28;20452;-68
2021/01/05 08:46:59;;;;;;;18.45;10.48;;;2.40;99.90;;;;;;5071521;28;20032;-68
2021/01/05 08:49:26;;;;;;;15.43;9.27;;;2.40;99.90;;;;;;5074402;28;20051;-68
2021/01/05 08:51:54;;;;;;;20.67;10.38;;;2.50;99.90;;;;;;5072441;28;20495;-67
2021/01/05 08:54:21;;;;;;;16.58;9.38;;;2.50;99.90;;;;;;5052474;28;20083;-67
2021/01/05 08:57:00;;;;;;;18.00;9.30;;;2.60;99.90;;;;;;5064402;28;20076;-67
2021/01/05 08:59:27;;;;;;;17.13;9.48;;;2.70;99.90;;;;;;5072570;28;20044;-67
2021/01/05 09:01:53;;;;;;;16.27;9.88;;;2.70;99.90;;;;;;5070661;28;20099;-67
2021/01/05 09:04:20;;;;;;;18.63;10.52;;;2.70;99.90;;;;;;5069499;28;20049;-66
2021/01/05 09:06:48;;;;;;;17.65;10.23;;;2.70;99.90;;;;;;5061754;28;20124;-66
2021/01/05 09:09:16;;;;;;;22.25;10.82;;;2.70;99.90;;;;;;5068995;28;20276;-67
2021/01/05 09:11:42;;;;;;;16.92;9.93;;;2.70;99.90;;;;;;5053412;28;20041;-66
2021/01/05 09:14:09;;;;;;;18.27;10.25;;;2.70;99.90;;;;;;5066894;28;20489;-66
2021/01/05 09:16:35;;;;;;;18.85;10.73;;;2.60;99.90;;;;;;5073040;28;20580;-66
2021/01/05 09:19:02;;;;;;;19.52;10.68;;;2.60;99.90;;;;;;5072834;28;20136;-66
2021/01/05 09:21:29;;;;;;;18.88;10.57;;;2.60;99.90;;;;;;5065547;28;20050;-66
2021/01/05 09:24:02;;;;;;;16.13;9.80;;;2.60;99.90;;;;;;5071539;28;20131;-66
2021/01/05 09:26:34;;;;;;;16.75;9.68;;;2.60;99.90;;;;;;5071234;28;20403;-65
2021/01/05 09:29:03;;;;;;;19.02;9.93;;;2.60;99.90;;;;;;5054994;28;20494;-65
2021/01/05 09:31:30;;;;;;;16.48;10.23;;;2.70;99.90;;;;;;5074473;28;20056;-66
2021/01/05 09:33:56;;;;;;;16.75;9.50;;;2.70;99.90;;;;;;5071242;28;20045;-66
2021/01/05 09:36:31;;;;;;;19.08;9.45;;;2.70;99.90;;;;;;5070050;28;20052;-66
2021/01/05 09:38:58;;;;;;;18.85;10.43;;;2.70;99.90;;;;;;5085529;28;20120;-66
2021/01/05 09:41:27;;;;;;;22.00;10.07;;;2.70;99.90;;;;;;5070176;28;20071;-67
2021/01/05 09:43:54;;;;;;;23.15;12.70;;;2.70;99.90;;;;;;5071157;28;20044;-66
2021/01/05 09:46:22;;;;;;;23.60;11.82;;;2.70;99.90;;;;;;5054136;28;20407;-66
2021/01/05 09:48:49;;;;;;;15.98;10.20;;;2.80;99.90;;;;;;5071667;28;20455;-66
2021/01/05 09:51:34;;;;;;;23.38;9.93;;;2.80;99.90;;;;;;5068602;28;20053;-66
2021/01/05 09:54:12;;;;;;;16.58;9.20;;;2.80;99.90;;;;;;5068842;28;20060;-66
2021/01/05 09:56:39;;;;;;;17.50;9.38;;;2.80;99.90;;;;;;5071743;28;20048;-66
2021/01/05 09:59:05;;;;;;;16.67;9.77;;;2.90;99.90;;;;;;5070674;28;20053;-66
2021/01/05 10:01:33;;;;;;;18.35;10.02;;;2.90;99.90;;;;;;5060084;28;20059;-66
2021/01/05 10:04:01;;;;;;;16.88;10.07;;;3.00;99.90;;;;;;5066599;28;20379;-66
2021/01/05 10:06:32;;;;;;;15.13;9.52;;;3.00;99.90;;;;;;5069992;28;20044;-67
2021/01/05 10:08:59;;;;;;;17.15;9.82;;;3.10;99.90;;;;;;5070414;28;20139;-67
2021/01/05 10:11:32;;;;;;;14.57;8.68;;;3.10;99.90;;;;;;5066365;28;20040;-66
2021/01/05 10:13:59;;;;;;;13.40;8.60;;;3.20;99.90;;;;;;5070254;28;20185;-67
2021/01/05 10:16:26;;;;;;;15.43;9.73;;;3.20;99.90;;;;;;5077869;28;20048;-66
2021/01/05 10:18:53;;;;;;;16.00;10.00;;;3.20;99.90;;;;;;5070074;28;20110;-67
2021/01/05 10:21:23;;;;;;;19.67;10.20;;;3.40;99.90;;;;;;5070800;28;20486;-67
2021/01/05 10:23:50;;;;;;;17.42;10.13;;;3.40;99.90;;;;;;5070317;28;20505;-67
2021/01/05 10:26:17;;;;;;;21.27;9.60;;;3.40;99.90;;;;;;5071151;28;20049;-67
2021/01/05 10:28:43;;;;;;;16.10;9.07;;;3.40;99.90;;;;;;5069134;28;20083;-66
2021/01/05 10:31:10;;;;;;;15.02;9.48;;;3.50;99.90;;;;;;5072621;28;20051;-67
2021/01/05 10:33:36;;;;;;;19.48;11.25;;;3.50;99.90;;;;;;5067697;28;20059;-66
2021/01/05 10:36:03;;;;;;;15.75;9.68;;;3.60;99.90;;;;;;5061607;28;20451;-66
2021/01/05 10:38:29;;;;;;;15.05;9.13;;;3.60;99.90;;;;;;5068855;28;20064;-66
2021/01/05 10:40:56;;;;;;;14.63;9.10;;;3.60;99.90;;;;;;5069788;28;20049;-67
2021/01/05 10:43:22;;;;;;;16.33;8.75;;;3.60;99.90;;;;;;5069508;28;20055;-66
2021/01/05 10:45:49;;;;;;;14.68;8.60;;;3.70;99.90;;;;;;5084796;28;20045;-66
2021/01/05 10:48:15;;;;;;;18.33;8.90;;;3.80;99.90;;;;;;5073629;28;20051;-67
2021/01/05 10:50:42;;;;;;;15.25;8.65;;;3.80;99.90;;;;;;5072237;28;20402;-66
2021/01/05 10:53:08;;;;;;;15.13;9.10;;;3.80;99.90;;;;;;5050697;28;20048;-66
2021/01/05 10:55:35;;;;;;;16.75;10.05;;;3.80;99.90;;;;;;5070121;28;20492;-67
2021/01/05 10:58:03;;;;;;;14.02;9.77;;;3.80;99.90;;;;;;5069230;28;20048;-68
2021/01/05 11:00:29;;;;;;;14.30;9.52;;;3.80;99.90;;;;;;5052642;28;20135;-67
2021/01/05 11:02:56;;;;;;;16.90;10.13;;;3.80;99.90;;;;;;5068018;28;20044;-68
2021/01/05 11:05:22;;;;;;;15.77;8.70;;;3.80;99.90;;;;;;5070482;28;20406;-68
2021/01/05 11:07:51;;;;;;;15.57;9.32;;;3.80;99.90;;;;;;5066443;28;20045;-66
2021/01/05 11:10:19;;;;;;;17.35;9.75;;;3.80;99.90;;;;;;5058724;28;20044;-66
2021/01/05 11:12:45;;;;;;;16.42;9.50;;;3.80;99.90;;;;;;5067788;28;20508;-68
2021/01/05 11:15:14;;;;;;;17.10;10.02;;;3.90;99.90;;;;;;5062697;28;20434;-66
2021/01/05 11:17:43;;;;;;;15.00;9.55;;;3.90;99.90;;;;;;5062918;28;20056;-67
2021/01/05 11:20:14;;;;;;;19.85;11.50;;;3.90;99.90;;;;;;5069069;28;20444;-66
2021/01/05 11:22:41;;;;;;;18.25;10.77;;;3.90;99.90;;;;;;5067343;28;20132;-68
2021/01/05 11:25:12;;;;;;;18.13;11.48;;;3.90;99.90;;;;;;5058425;28;20044;-67
2021/01/05 11:27:39;;;;;;;17.30;10.90;;;3.90;99.90;;;;;;5068879;28;20063;-66
2021/01/05 11:30:07;;;;;;;20.63;11.90;;;4.00;99.90;;;;;;5069432;28;20486;-66
2021/01/05 11:32:33;;;;;;;23.35;14.18;;;4.00;99.90;;;;;;5073976;28;20095;-66
2021/01/05 11:35:00;;;;;;;18.77;11.57;;;4.10;99.90;;;;;;5069919;28;20429;-68
2021/01/05 11:37:26;;;;;;;19.17;12.05;;;4.20;99.90;;;;;;5068559;28;20044;-66
2021/01/05 11:39:53;;;;;;;18.27;10.68;;;4.20;99.90;;;;;;5068356;28;20403;-66
2021/01/05 11:42:22;;;;;;;33.03;18.25;;;4.30;99.90;;;;;;5062905;28;20076;-66
2021/01/05 11:44:50;;;;;;;24.13;12.80;;;4.30;99.90;;;;;;5070136;28;20048;-66
2021/01/05 11:47:18;;;;;;;20.38;11.88;;;4.30;99.90;;;;;;5073956;28;20044;-66
2021/01/05 11:49:45;;;;;;;20.73;11.38;;;4.30;99.90;;;;;;5080719;28;20055;-69
2021/01/05 11:52:12;;;;;;;19.17;11.48;;;4.40;99.90;;;;;;5073914;28;20059;-67
2021/01/05 11:54:38;;;;;;;20.17;11.77;;;4.40;99.90;;;;;;5074370;28;20048;-67
2021/01/05 11:57:05;;;;;;;22.80;12.90;;;4.50;99.90;;;;;;5073554;28;20541;-67
2021/01/05 11:59:32;;;;;;;21.50;12.48;;;4.60;99.90;;;;;;5073939;28;20497;-67
2021/01/05 12:02:01;;;;;;;22.45;12.90;;;4.60;99.90;;;;;;5073312;28;20064;-66
2021/01/05 12:04:29;;;;;;;21.25;11.95;;;4.60;99.90;;;;;;5072980;28;20068;-67
2021/01/05 12:06:56;;;;;;;22.40;12.18;;;4.50;99.90;;;;;;5073486;28;20044;-66
2021/01/05 12:09:24;;;;;;;21.42;12.55;;;4.60;99.90;;;;;;5061352;28;20047;-68
2021/01/05 12:11:58;;;;;;;21.98;12.77;;;4.50;99.90;;;;;;5063288;28;20044;-65
2021/01/05 12:14:25;;;;;;;22.55;11.55;;;4.50;99.90;;;;;;5072779;28;20048;-67
2021/01/05 12:16:52;;;;;;;19.55;12.10;;;4.50;99.90;;;;;;5072239;28;20512;-67
2021/01/05 12:19:25;;;;;;;19.23;11.68;;;4.50;99.90;;;;;;5070292;28;20064;-67
2021/01/05 12:21:55;;;;;;;20.40;11.85;;;4.50;99.90;;;;;;5070581;28;20059;-65
2021/01/05 12:24:27;;;;;;;21.13;12.55;;;4.50;99.90;;;;;;5073712;28;20128;-66
2021/01/05 12:26:59;;;;;;;20.48;11.63;;;4.50;99.90;;;;;;5069996;28;20131;-66
2021/01/05 12:29:28;;;;;;;22.15;12.38;;;4.40;99.90;;;;;;5073171;28;20044;-66
2021/01/05 12:32:05;;;;;;;25.20;15.23;;;4.40;99.90;;;;;;5074053;28;20048;-66
2021/01/05 12:34:35;;;;;;;24.23;14.88;;;4.40;99.90;;;;;;5072367;28;20048;-66
2021/01/05 12:37:04;;;;;;;23.58;14.35;;;4.40;99.90;;;;;;5072918;28;20367;-66
2021/01/05 12:39:32;;;;;;;27.75;16.30;;;4.40;99.90;;;;;;5074139;28;20056;-65
2021/01/05 12:42:22;;;;;;;27.85;15.57;;;4.50;99.90;;;;;;5071434;28;20053;-66
2021/01/05 12:44:52;;;;;;;23.17;13.85;;;4.60;99.90;;;;;;5073012;28;20044;-65
2021/01/05 12:47:20;;;;;;;22.40;12.93;;;4.80;99.90;;;;;;5072199;28;20044;-66
2021/01/05 12:49:47;;;;;;;23.30;13.77;;;5.00;99.90;;;;;;5061634;28;20048;-66
2021/01/05 12:52:14;;;;;;;23.88;13.85;;;5.10;99.90;;;;;;5072296;28;20049;-66
2021/01/05 12:54:42;;;;;;;20.73;12.73;;;5.10;99.90;;;;;;5066076;28;20049;-65
2021/01/05 12:57:12;;;;;;;25.45;14.25;;;5.10;99.90;;;;;;5054218;28;20056;-65
2021/01/05 12:59:41;;;;;;;19.73;13.57;;;5.10;99.90;;;;;;5066148;28;20058;-67